^^
Grace C. Lehan Memorial Weather Station Historical Data
Daily Summary for November 15, 2021 Units:  Both    English   Metric
Daily Weekly Monthly Yearly
  High: Low: Average:
Temperature: 50.2 °F /  10.1 °C 35.7 °F /  2.1 °C 42.9 °F /  6.1 °C
Dew Point: 41.2 °F /  5.1 °C 33.1 °F /  0.6 °C 36.4 °F /  2.4 °C
Humidity: 95% 59% 79%
Wind Speed: 8.7mph /  14km/h - 1.3mph /  2.1km/h
Wind Gust: 18mph /  29km/h - -
Wind- - West
Pressure: 29.83 in /  1010 hPa 29.68 in /  1005 hPa -
Precipitation: 0.01 in /  0.25 mm    
 
 
Tabular Data for November 15, 2021
Time Temperature Dew Point Pressure Wind Wind Speed Wind Gust Humidity Rainfall Rate (Hourly) solar
00:04 42.6 °F /  5.9 °C 38.6 °F /  3.7 °C 29.76in /  1007.7hPa Calm   6mph /  9.7km/h 85.6% 0.03in /  0.76mm 0 W/m2
00:09 42.5 °F /  5.8 °C 38.6 °F /  3.7 °C 29.75in /  1007.3hPa WSW 0.2mph /  0.3km/h 3mph /  4.8km/h 86% 0.03in /  0.76mm 0 W/m2
00:14 42.4 °F /  5.8 °C 38.6 °F /  3.7 °C 29.75in /  1007.3hPa Calm   3mph /  4.8km/h 86.3% 0.03in /  0.76mm 0 W/m2
00:19 42.3 °F /  5.7 °C 38.7 °F /  3.7 °C 29.75in /  1007.3hPa Calm   3mph /  4.8km/h 87% 0.03in /  0.76mm 0 W/m2
00:24 42.2 °F /  5.7 °C 38.6 °F /  3.7 °C 29.75in /  1007.3hPa Calm   3mph /  4.8km/h 87% 0.03in /  0.76mm 0 W/m2
00:29 42.1 °F /  5.6 °C 38.7 °F /  3.7 °C 29.75in /  1007.3hPa Calm   3mph /  4.8km/h 87.6% 0.03in /  0.76mm 0 W/m2
00:34 42 °F /  5.6 °C 38.7 °F /  3.7 °C 29.75in /  1007.3hPa Calm   3mph /  4.8km/h 88% 0.03in /  0.76mm 0 W/m2
00:39 42 °F /  5.6 °C 38.7 °F /  3.7 °C 29.75in /  1007.3hPa Calm     88% 0.02in /  0.51mm 0 W/m2
00:44 41.9 °F /  5.5 °C 38.6 °F /  3.7 °C 29.74in /  1007hPa Calm     88% 0.02in /  0.51mm 0 W/m2
00:49 41.8 °F /  5.4 °C 38.6 °F /  3.7 °C 29.74in /  1007hPa Calm     88.2% 0.02in /  0.51mm 0 W/m2
00:54 41.7 °F /  5.4 °C 38.7 °F /  3.7 °C 29.74in /  1007hPa Calm     89% 0.02in /  0.51mm 0 W/m2
00:59 41.6 °F /  5.3 °C 38.6 °F /  3.7 °C 29.74in /  1007hPa Calm     89% 0.02in /  0.51mm 0 W/m2
01:04 41.5 °F /  5.3 °C 38.5 °F /  3.6 °C 29.75in /  1007.3hPa Calm     89% 0.02in /  0.51mm 0 W/m2
01:09 41.4 °F /  5.2 °C 38.4 °F /  3.6 °C 29.75in /  1007.3hPa Calm     89% 0.01in /  0.25mm 0 W/m2
01:14 41.3 °F /  5.2 °C 38.3 °F /  3.5 °C 29.75in /  1007.3hPa Calm     89% 0.01in /  0.25mm 0 W/m2
01:19 41.2 °F /  5.1 °C 38.3 °F /  3.5 °C 29.74in /  1007hPa Calm     89.4% 0.01in /  0.25mm 0 W/m2
01:24 41.2 °F /  5.1 °C 38.5 °F /  3.6 °C 29.74in /  1007hPa Calm     90% 0.01in /  0.25mm 0 W/m2
01:29 41.1 °F /  5.1 °C 38.4 °F /  3.6 °C 29.74in /  1007hPa Calm     90% 0.01in /  0.25mm 0 W/m2
01:34 41.1 °F /  5.1 °C 38.4 °F /  3.6 °C 29.73in /  1006.7hPa Calm     90% 0.01in /  0.25mm 0 W/m2
01:39 41.1 °F /  5.1 °C 38.4 °F /  3.6 °C 29.73in /  1006.7hPa Calm     90% 0.00in /  0mm 0 W/m2
01:44 41.1 °F /  5.1 °C 38.6 °F /  3.7 °C 29.73in /  1006.7hPa Calm     90.6% 0.00in /  0mm 0 W/m2
01:49 41.1 °F /  5.1 °C 38.7 °F /  3.7 °C 29.73in /  1006.7hPa Calm     91% 0.00in /  0mm 0 W/m2
01:54 41.1 °F /  5.1 °C 38.7 °F /  3.7 °C 29.74in /  1007hPa Calm     91% 0.00in /  0mm 0 W/m2
01:59 41.2 °F /  5.1 °C 38.8 °F /  3.8 °C 29.74in /  1007hPa Calm     91% 0.00in /  0mm 0 W/m2
02:04 41.2 °F /  5.1 °C 38.8 °F /  3.8 °C 29.74in /  1007hPa Calm     91% 0.00in /  0mm 0 W/m2
02:09 41.2 °F /  5.1 °C 38.8 °F /  3.8 °C 29.74in /  1007hPa Calm     91% 0.00in /  0mm 0 W/m2
02:14 41.3 °F /  5.2 °C 38.9 °F /  3.8 °C 29.73in /  1006.7hPa Calm     91% 0.00in /  0mm 0 W/m2
02:19 41.3 °F /  5.2 °C 38.9 °F /  3.8 °C 29.73in /  1006.7hPa Calm     91% 0.00in /  0mm 0 W/m2
02:24 41.3 °F /  5.2 °C 39.1 °F /  3.9 °C 29.73in /  1006.7hPa Calm     91.7% 0.00in /  0mm 0 W/m2
02:29 41.3 °F /  5.2 °C 39.1 °F /  3.9 °C 29.72in /  1006.3hPa Calm     91.6% 0.00in /  0mm 0 W/m2
02:34 41.3 °F /  5.2 °C 39.1 °F /  3.9 °C 29.72in /  1006.3hPa Calm     91.9% 0.00in /  0mm 0 W/m2
02:39 41.3 °F /  5.2 °C 38.9 °F /  3.8 °C 29.71in /  1006hPa Calm     91% 0.00in /  0mm 0 W/m2
02:44 41.3 °F /  5.2 °C 38.9 °F /  3.8 °C 29.71in /  1006hPa WSW 0.1mph /  0.2km/h 2mph /  3.2km/h 91% 0.00in /  0mm 0 W/m2
02:49 41.3 °F /  5.2 °C 38.9 °F /  3.8 °C 29.71in /  1006hPa Calm   2mph /  3.2km/h 91% 0.00in /  0mm 0 W/m2
02:54 41.2 °F /  5.1 °C 38.8 °F /  3.8 °C 29.71in /  1006hPa Calm   2mph /  3.2km/h 91% 0.00in /  0mm 0 W/m2
02:59 41.2 °F /  5.1 °C 38.7 °F /  3.7 °C 29.70in /  1005.6hPa Calm   2mph /  3.2km/h 91% 0.00in /  0mm 0 W/m2
03:04 41.1 °F /  5.1 °C 38.7 °F /  3.7 °C 29.70in /  1005.6hPa Calm   2mph /  3.2km/h 91% 0.00in /  0mm 0 W/m2
03:09 41 °F /  5 °C 38.5 °F /  3.6 °C 29.70in /  1005.6hPa Calm     91% 0.00in /  0mm 0 W/m2
03:14 40.8 °F /  4.9 °C 38.4 °F /  3.6 °C 29.70in /  1005.6hPa Calm     91% 0.00in /  0mm 0 W/m2
03:19 40.7 °F /  4.8 °C 38.3 °F /  3.5 °C 29.70in /  1005.6hPa Calm     91% 0.00in /  0mm 0 W/m2
03:24 40.6 °F /  4.8 °C 38.2 °F /  3.4 °C 29.70in /  1005.6hPa Calm     91% 0.00in /  0mm 0 W/m2
03:29 40.6 °F /  4.8 °C 38.1 °F /  3.4 °C 29.70in /  1005.6hPa Calm     91% 0.00in /  0mm 0 W/m2
03:34 40.5 °F /  4.7 °C 38.1 °F /  3.4 °C 29.70in /  1005.6hPa Calm     91% 0.00in /  0mm 0 W/m2
03:39 40.4 °F /  4.7 °C 38 °F /  3.3 °C 29.70in /  1005.6hPa Calm     91% 0.00in /  0mm 0 W/m2
03:44 40.3 °F /  4.6 °C 37.9 °F /  3.3 °C 29.70in /  1005.6hPa Calm     91% 0.00in /  0mm 0 W/m2
03:49 40.2 °F /  4.6 °C 37.8 °F /  3.2 °C 29.70in /  1005.6hPa Calm     91% 0.00in /  0mm 0 W/m2
03:54 40 °F /  4.4 °C 37.6 °F /  3.1 °C 29.70in /  1005.6hPa Calm     91% 0.00in /  0mm 0 W/m2
03:59 39.9 °F /  4.4 °C 37.5 °F /  3.1 °C 29.70in /  1005.6hPa Calm     91% 0.00in /  0mm 0 W/m2
04:00 39.8 °F /  4.3 °C 37.4 °F /  3 °C 29.69in /  1005.3hPa Calm     91% 0.00in /  0mm 0 W/m2
04:09 39.6 °F /  4.2 °C 37.2 °F /  2.9 °C 29.69in /  1005.3hPa Calm     91% 0.00in /  0mm 0 W/m2
04:14 39.5 °F /  4.2 °C 37.1 °F /  2.8 °C 29.69in /  1005.3hPa Calm     91% 0.00in /  0mm 0 W/m2
04:19 39.3 °F /  4.1 °C 36.9 °F /  2.7 °C 29.69in /  1005.3hPa Calm     91% 0.00in /  0mm 0 W/m2
04:24 39.2 °F /  4 °C 36.8 °F /  2.7 °C 29.69in /  1005.3hPa Calm     91% 0.00in /  0mm 0 W/m2
04:29 39.1 °F /  3.9 °C 36.7 °F /  2.6 °C 29.69in /  1005.3hPa Calm     91% 0.00in /  0mm 0 W/m2
04:34 38.9 °F /  3.8 °C 36.5 °F /  2.5 °C 29.69in /  1005.3hPa Calm     91% 0.00in /  0mm 0 W/m2
04:39 38.8 °F /  3.8 °C 36.4 °F /  2.4 °C 29.69in /  1005.3hPa Calm     91% 0.00in /  0mm 0 W/m2
04:44 38.6 °F /  3.7 °C 36.2 °F /  2.3 °C 29.69in /  1005.3hPa Calm     91% 0.00in /  0mm 0 W/m2
04:49 38.4 °F /  3.6 °C 36.1 °F /  2.3 °C 29.69in /  1005.3hPa Calm     91% 0.00in /  0mm 0 W/m2
04:54 38.3 °F /  3.5 °C 35.9 °F /  2.2 °C 29.69in /  1005.3hPa Calm     91% 0.00in /  0mm 0 W/m2
04:59 38.1 °F /  3.4 °C 35.7 °F /  2.1 °C 29.70in /  1005.6hPa Calm     91% 0.00in /  0mm 0 W/m2
05:04 38 °F /  3.3 °C 35.6 °F /  2 °C 29.70in /  1005.6hPa Calm     91% 0.00in /  0mm 0 W/m2
05:09 37.7 °F /  3.2 °C 35.4 °F /  1.9 °C 29.69in /  1005.3hPa Calm     91% 0.00in /  0mm 0 W/m2
05:14 37.5 °F /  3.1 °C 35.1 °F /  1.7 °C 29.69in /  1005.3hPa Calm     91% 0.00in /  0mm 0 W/m2
05:19 37.3 °F /  2.9 °C 34.9 °F /  1.6 °C 29.69in /  1005.3hPa Calm     91% 0.00in /  0mm 0 W/m2
05:24 37.1 °F /  2.8 °C 34.7 °F /  1.5 °C 29.69in /  1005.3hPa Calm     91% 0.00in /  0mm 0 W/m2
05:29 37 °F /  2.8 °C 34.8 °F /  1.6 °C 29.68in /  1005hPa Calm     91.6% 0.00in /  0mm 0 W/m2
05:34 36.9 °F /  2.7 °C 34.8 °F /  1.6 °C 29.69in /  1005.3hPa Calm     92% 0.00in /  0mm 0 W/m2
05:39 36.9 °F /  2.7 °C 34.8 °F /  1.6 °C 29.68in /  1005hPa Calm     92% 0.00in /  0mm 0 W/m2
05:44 36.9 °F /  2.7 °C 34.8 °F /  1.6 °C 29.68in /  1005hPa Calm     92% 0.00in /  0mm 0 W/m2
05:49 36.9 °F /  2.7 °C 34.8 °F /  1.6 °C 29.68in /  1005hPa Calm     92% 0.00in /  0mm 0 W/m2
05:54 36.8 °F /  2.7 °C 34.7 °F /  1.5 °C 29.68in /  1005hPa Calm     92% 0.00in /  0mm 0 W/m2
05:59 36.6 °F /  2.6 °C 34.7 °F /  1.5 °C 29.68in /  1005hPa Calm     92.5% 0.00in /  0mm 0 W/m2
06:04 36.5 °F /  2.5 °C 34.6 °F /  1.4 °C 29.68in /  1005hPa Calm     92.7% 0.00in /  0mm 0 W/m2
06:09 36.5 °F /  2.5 °C 34.4 °F /  1.3 °C 29.68in /  1005hPa Calm     92% 0.00in /  0mm 0 W/m2
06:14 36.3 °F /  2.4 °C 34.4 °F /  1.3 °C 29.68in /  1005hPa Calm     92.8% 0.00in /  0mm 0 W/m2
06:19 36.2 °F /  2.3 °C 34.3 °F /  1.3 °C 29.68in /  1005hPa Calm     93% 0.00in /  0mm 0 W/m2
06:24 36.1 °F /  2.3 °C 34.3 °F /  1.3 °C 29.68in /  1005hPa Calm     93% 0.00in /  0mm 0 W/m2
06:29 36 °F /  2.2 °C 34.2 °F /  1.2 °C 29.68in /  1005hPa Calm     93% 0.00in /  0mm 0 W/m2
06:34 35.9 °F /  2.2 °C 34.1 °F /  1.2 °C 29.68in /  1005hPa Calm     93% 0.00in /  0mm 0 W/m2
06:39 35.7 °F /  2.1 °C 33.9 °F /  1.1 °C 29.68in /  1005hPa Calm     93% 0.00in /  0mm 0 W/m2
06:44 35.7 °F /  2.1 °C 33.9 °F /  1.1 °C 29.68in /  1005hPa Calm     93% 0.00in /  0mm 0 W/m2
06:49 35.7 °F /  2.1 °C 33.9 °F /  1.1 °C 29.68in /  1005hPa Calm   1mph /  1.6km/h 93% 0.00in /  0mm 5 W/m2
06:54 35.8 °F /  2.1 °C 34 °F /  1.1 °C 29.69in /  1005.3hPa Calm   1mph /  1.6km/h 93% 0.00in /  0mm 11 W/m2
06:59 35.9 °F /  2.2 °C 34.1 °F /  1.2 °C 29.69in /  1005.3hPa Calm   1mph /  1.6km/h 93% 0.00in /  0mm 12 W/m2
07:04 35.9 °F /  2.2 °C 34.2 °F /  1.2 °C 29.69in /  1005.3hPa Calm   1mph /  1.6km/h 93.2% 0.00in /  0mm 18 W/m2
07:09 36 °F /  2.2 °C 34.4 °F /  1.3 °C 29.69in /  1005.3hPa Calm   1mph /  1.6km/h 94% 0.00in /  0mm 23 W/m2
07:14 36.1 °F /  2.3 °C 34.5 °F /  1.4 °C 29.69in /  1005.3hPa WSW 0.1mph /  0.2km/h 1mph /  1.6km/h 94% 0.00in /  0mm 42 W/m2
07:19 36.3 °F /  2.4 °C 34.8 °F /  1.6 °C 29.69in /  1005.3hPa WSW 0.1mph /  0.2km/h 3mph /  4.8km/h 94% 0.00in /  0mm 32 W/m2
07:24 36.6 °F /  2.6 °C 35 °F /  1.7 °C 29.70in /  1005.6hPa Calm   3mph /  4.8km/h 94% 0.00in /  0mm 35 W/m2
07:29 36.8 °F /  2.7 °C 35.2 °F /  1.8 °C 29.70in /  1005.6hPa WSW 0.1mph /  0.2km/h 3mph /  4.8km/h 94% 0.00in /  0mm 42 W/m2
07:34 37 °F /  2.8 °C 35.4 °F /  1.9 °C 29.70in /  1005.6hPa Calm   3mph /  4.8km/h 94% 0.00in /  0mm 49 W/m2
07:39 37.2 °F /  2.9 °C 35.7 °F /  2.1 °C 29.70in /  1005.6hPa WSW 0.1mph /  0.2km/h 2mph /  3.2km/h 94% 0.00in /  0mm 44 W/m2
07:44 37.4 °F /  3 °C 35.9 °F /  2.2 °C 29.70in /  1005.6hPa WSW 0.1mph /  0.2km/h 2mph /  3.2km/h 94% 0.00in /  0mm 56 W/m2
07:49 37.6 °F /  3.1 °C 36 °F /  2.2 °C 29.69in /  1005.3hPa Calm   2mph /  3.2km/h 94% 0.00in /  0mm 72 W/m2
07:54 37.8 °F /  3.2 °C 36.2 °F /  2.3 °C 29.69in /  1005.3hPa Calm   2mph /  3.2km/h 94% 0.00in /  0mm 70 W/m2
07:59 38 °F /  3.3 °C 36.4 °F /  2.4 °C 29.69in /  1005.3hPa Calm   2mph /  3.2km/h 94% 0.00in /  0mm 58 W/m2
08:00 38.1 °F /  3.4 °C 36.5 °F /  2.5 °C 29.69in /  1005.3hPa Calm   2mph /  3.2km/h 94% 0.00in /  0mm 58 W/m2
08:09 38.6 °F /  3.7 °C 37.3 °F /  2.9 °C 29.68in /  1005hPa Calm     95% 0.00in /  0mm 186 W/m2
08:30 42.5 °F /  5.8 °C 41.2 °F /  5.1 °C 29.69in /  1005.3hPa Calm   9mph /  14.5km/h 95% 0.00in /  0mm 214 W/m2
09:00 45.1 °F /  7.3 °C 39.6 °F /  4.2 °C 29.69in /  1005.3hPa WSW 2mph /  3.2km/h 11mph /  17.7km/h 81% 0.00in /  0mm 249 W/m2
09:30 43.7 °F /  6.5 °C 38.6 °F /  3.7 °C 29.69in /  1005.3hPa West 1mph /  1.6km/h 12mph /  19.3km/h 82% 0.00in /  0mm 97 W/m2
10:00 44.9 °F /  7.2 °C 38.5 °F /  3.6 °C 29.69in /  1005.3hPa Calm   9mph /  14.5km/h 78% 0.00in /  0mm 124 W/m2
10:30 46 °F /  7.8 °C 38.5 °F /  3.6 °C 29.69in /  1005.3hPa Calm   7mph /  11.3km/h 75% 0.00in /  0mm 153 W/m2
11:00 47 °F /  8.3 °C 38.8 °F /  3.8 °C 29.69in /  1005.3hPa West 1mph /  1.6km/h 7mph /  11.3km/h 73% 0.00in /  0mm 192 W/m2
11:30 48.4 °F /  9.1 °C 39.1 °F /  3.9 °C 29.69in /  1005.3hPa WSW 1mph /  1.6km/h 9mph /  14.5km/h 70% 0.00in /  0mm 213 W/m2
12:04 48.1 °F /  8.9 °C 36.5 °F /  2.5 °C 29.68in /  1005hPa WNW 1.3mph /  2.1km/h 5mph /  8km/h 64% 0.00in /  0mm 141 W/m2
12:09 48.1 °F /  8.9 °C 37 °F /  2.8 °C 29.68in /  1005hPa WNW 1.8mph /  2.9km/h 9mph /  14.5km/h 65.3% 0.00in /  0mm 127 W/m2
12:14 47.9 °F /  8.8 °C 36.6 °F /  2.6 °C 29.68in /  1005hPa West 4mph /  6.4km/h 11mph /  17.7km/h 64.7% 0.00in /  0mm 134 W/m2
12:19 47.8 °F /  8.8 °C 36.3 °F /  2.4 °C 29.69in /  1005.3hPa West 1.3mph /  2.1km/h 11mph /  17.7km/h 64.1% 0.00in /  0mm 118 W/m2
12:24 47.8 °F /  8.8 °C 36.8 °F /  2.7 °C 29.69in /  1005.3hPa West 2.3mph /  3.7km/h 11mph /  17.7km/h 65.4% 0.00in /  0mm 114 W/m2
12:29 47.8 °F /  8.8 °C 36.6 °F /  2.6 °C 29.69in /  1005.3hPa West 2.5mph /  4km/h 14mph /  22.5km/h 65.1% 0.00in /  0mm 102 W/m2
12:34 47.7 °F /  8.7 °C 36.3 °F /  2.4 °C 29.69in /  1005.3hPa West 1.7mph /  2.7km/h 14mph /  22.5km/h 64.4% 0.00in /  0mm 113 W/m2
12:39 47.6 °F /  8.7 °C 36.1 °F /  2.3 °C 29.68in /  1005hPa West 4.3mph /  6.9km/h 13mph /  20.9km/h 64.1% 0.00in /  0mm 134 W/m2
12:44 47.6 °F /  8.7 °C 36 °F /  2.2 °C 29.68in /  1005hPa West 2.8mph /  4.5km/h 13mph /  20.9km/h 64% 0.00in /  0mm 134 W/m2
12:49 47.6 °F /  8.7 °C 36.2 °F /  2.3 °C 29.68in /  1005hPa WSW 2.9mph /  4.7km/h 13mph /  20.9km/h 64.5% 0.00in /  0mm 116 W/m2
12:54 47.5 °F /  8.6 °C 36 °F /  2.2 °C 29.68in /  1005hPa WSW 2.1mph /  3.4km/h 13mph /  20.9km/h 64.2% 0.00in /  0mm 88 W/m2
12:59 47.4 °F /  8.6 °C 36.2 °F /  2.3 °C 29.68in /  1005hPa West 2.9mph /  4.7km/h 13mph /  20.9km/h 64.8% 0.00in /  0mm 100 W/m2
13:04 47.3 °F /  8.5 °C 36.1 °F /  2.3 °C 29.68in /  1005hPa WSW 1.9mph /  3.1km/h 13mph /  20.9km/h 65.1% 0.00in /  0mm 100 W/m2
13:09 47.2 °F /  8.4 °C 36.3 °F /  2.4 °C 29.68in /  1005hPa West 2.7mph /  4.3km/h 10mph /  16.1km/h 65.6% 0.00in /  0mm 123 W/m2
13:14 47.3 °F /  8.5 °C 36.6 °F /  2.6 °C 29.68in /  1005hPa WNW 1.2mph /  1.9km/h 10mph /  16.1km/h 66% 0.00in /  0mm 325 W/m2
13:19 47.7 °F /  8.7 °C 37.3 °F /  2.9 °C 29.68in /  1005hPa WNW 2.5mph /  4km/h 11mph /  17.7km/h 67.1% 0.00in /  0mm 376 W/m2
13:24 48.2 °F /  9 °C 37.2 °F /  2.9 °C 29.68in /  1005hPa West 3.5mph /  5.6km/h 12mph /  19.3km/h 65.5% 0.00in /  0mm 227 W/m2
13:29 48.6 °F /  9.2 °C 36.9 °F /  2.7 °C 29.68in /  1005hPa West 4.8mph /  7.7km/h 14mph /  22.5km/h 63.6% 0.00in /  0mm 239 W/m2
13:34 49.1 °F /  9.5 °C 37.5 °F /  3.1 °C 29.68in /  1005hPa West 1.5mph /  2.4km/h 14mph /  22.5km/h 64.2% 0.00in /  0mm 239 W/m2
13:39 49.5 °F /  9.7 °C 37.8 °F /  3.2 °C 29.68in /  1005hPa WSW 3.3mph /  5.3km/h 16mph /  25.7km/h 64% 0.00in /  0mm 262 W/m2
13:44 49.8 °F /  9.9 °C 37.1 °F /  2.8 °C 29.68in /  1005hPa West 4.1mph /  6.6km/h 16mph /  25.7km/h 61.5% 0.00in /  0mm 306 W/m2
13:49 50.1 °F /  10.1 °C 37.3 °F /  2.9 °C 29.68in /  1005hPa WSW 4.1mph /  6.6km/h 16mph /  25.7km/h 61.2% 0.00in /  0mm 306 W/m2
13:54 50.2 °F /  10.1 °C 37.7 °F /  3.2 °C 29.69in /  1005.3hPa West 3.1mph /  5km/h 16mph /  25.7km/h 62% 0.00in /  0mm 295 W/m2
13:59 50.2 °F /  10.1 °C 36.7 °F /  2.6 °C 29.69in /  1005.3hPa West 6.6mph /  10.6km/h 18mph /  29km/h 59.5% 0.00in /  0mm 244 W/m2
14:04 49.8 °F /  9.9 °C 36 °F /  2.2 °C 29.69in /  1005.3hPa West 5.3mph /  8.5km/h 18mph /  29km/h 59% 0.00in /  0mm 88 W/m2
14:09 49.2 °F /  9.6 °C 36 °F /  2.2 °C 29.69in /  1005.3hPa West 4.5mph /  7.2km/h 12mph /  19.3km/h 60.2% 0.00in /  0mm 109 W/m2
14:14 48.7 °F /  9.3 °C 36.3 °F /  2.4 °C 29.69in /  1005.3hPa WNW 5.3mph /  8.5km/h 14mph /  22.5km/h 62% 0.00in /  0mm 149 W/m2
14:19 48.4 °F /  9.1 °C 36.6 °F /  2.6 °C 29.69in /  1005.3hPa West 1.9mph /  3.1km/h 14mph /  22.5km/h 63.4% 0.00in /  0mm 135 W/m2
14:24 48.3 °F /  9.1 °C 36.9 °F /  2.7 °C 29.69in /  1005.3hPa WNW 5.8mph /  9.3km/h 14mph /  22.5km/h 64.3% 0.00in /  0mm 127 W/m2
14:29 48.2 °F /  9 °C 36.6 °F /  2.6 °C 29.70in /  1005.6hPa WNW 5.2mph /  8.4km/h 14mph /  22.5km/h 63.8% 0.00in /  0mm 114 W/m2
14:34 48.1 °F /  8.9 °C 36.7 °F /  2.6 °C 29.70in /  1005.6hPa West 3mph /  4.8km/h 14mph /  22.5km/h 64.4% 0.00in /  0mm 98 W/m2
14:39 48.1 °F /  8.9 °C 36.9 °F /  2.7 °C 29.70in /  1005.6hPa WNW 3.1mph /  5km/h 13mph /  20.9km/h 65% 0.00in /  0mm 93 W/m2
14:44 48.1 °F /  8.9 °C 37 °F /  2.8 °C 29.70in /  1005.6hPa West 2mph /  3.2km/h 13mph /  20.9km/h 65.3% 0.00in /  0mm 81 W/m2
14:49 48.2 °F /  9 °C 36.9 °F /  2.7 °C 29.70in /  1005.6hPa WNW 7.2mph /  11.6km/h 18mph /  29km/h 64.8% 0.00in /  0mm 69 W/m2
14:54 48 °F /  8.9 °C 36.5 °F /  2.5 °C 29.71in /  1006hPa WNW 2.9mph /  4.7km/h 18mph /  29km/h 64.2% 0.00in /  0mm 60 W/m2
14:59 47.8 °F /  8.8 °C 36.7 °F /  2.6 °C 29.71in /  1006hPa West 1.7mph /  2.7km/h 18mph /  29km/h 65.2% 0.00in /  0mm 46 W/m2
15:04 47.6 °F /  8.7 °C 36.6 °F /  2.6 °C 29.72in /  1006.3hPa WNW 5.2mph /  8.4km/h 18mph /  29km/h 65.3% 0.00in /  0mm 35 W/m2
15:09 47.4 °F /  8.6 °C 36.3 °F /  2.4 °C 29.72in /  1006.3hPa West 4.3mph /  6.9km/h 14mph /  22.5km/h 65% 0.00in /  0mm 58 W/m2
15:14 47.5 °F /  8.6 °C 36.4 °F /  2.4 °C 29.72in /  1006.3hPa West 1.7mph /  2.7km/h 14mph /  22.5km/h 65.3% 0.00in /  0mm 58 W/m2
15:19 47.5 °F /  8.6 °C 36.9 °F /  2.7 °C 29.72in /  1006.3hPa West 0.3mph /  0.5km/h 14mph /  22.5km/h 66.4% 0.00in /  0mm 47 W/m2
15:24 47.5 °F /  8.6 °C 37 °F /  2.8 °C 29.72in /  1006.3hPa WSW 0.8mph /  1.3km/h 14mph /  22.5km/h 66.7% 0.00in /  0mm 47 W/m2
15:29 47.4 °F /  8.6 °C 37 °F /  2.8 °C 29.73in /  1006.7hPa West 0.3mph /  0.5km/h 14mph /  22.5km/h 67.1% 0.00in /  0mm 39 W/m2
15:34 47.3 °F /  8.5 °C 37.1 °F /  2.8 °C 29.73in /  1006.7hPa WSW 1.5mph /  2.4km/h 14mph /  22.5km/h 67.4% 0.00in /  0mm 35 W/m2
15:39 47.1 °F /  8.4 °C 36.8 °F /  2.7 °C 29.72in /  1006.3hPa WSW 0.8mph /  1.3km/h 9mph /  14.5km/h 67% 0.00in /  0mm 33 W/m2
15:44 46.9 °F /  8.3 °C 36.7 °F /  2.6 °C 29.73in /  1006.7hPa WSW 1.1mph /  1.8km/h 9mph /  14.5km/h 67.3% 0.00in /  0mm 33 W/m2
15:49 46.7 °F /  8.2 °C 36.7 °F /  2.6 °C 29.73in /  1006.7hPa West 1mph /  1.6km/h 9mph /  14.5km/h 68% 0.00in /  0mm 23 W/m2
15:54 46.5 °F /  8.1 °C 36.4 °F /  2.4 °C 29.73in /  1006.7hPa WSW 1.3mph /  2.1km/h 9mph /  14.5km/h 67.6% 0.00in /  0mm 18 W/m2
15:59 46.4 °F /  8 °C 36.4 °F /  2.4 °C 29.73in /  1006.7hPa SW 0.2mph /  0.3km/h 9mph /  14.5km/h 68% 0.00in /  0mm 19 W/m2
16:09 46.2 °F /  7.9 °C 36.6 °F /  2.6 °C 29.73in /  1006.7hPa WSW 0.2mph /  0.3km/h 5mph /  8km/h 69% 0.00in /  0mm 16 W/m2
16:13 46.1 °F /  7.8 °C 36.5 °F /  2.5 °C 29.74in /  1007hPa WSW 0.3mph /  0.5km/h 5mph /  8km/h 69% 0.00in /  0mm 9 W/m2
16:19 46 °F /  7.8 °C 36.4 °F /  2.4 °C 29.74in /  1007hPa West 0.6mph /  1km/h 7mph /  11.3km/h 69% 0.00in /  0mm 5 W/m2
16:24 45.9 °F /  7.7 °C 36.4 °F /  2.4 °C 29.75in /  1007.3hPa West 0.3mph /  0.5km/h 7mph /  11.3km/h 69.1% 0.00in /  0mm 0 W/m2
16:29 45.9 °F /  7.7 °C 36.6 °F /  2.6 °C 29.75in /  1007.3hPa Calm   7mph /  11.3km/h 69.8% 0.00in /  0mm 0 W/m2
16:34 45.9 °F /  7.7 °C 36.6 °F /  2.6 °C 29.75in /  1007.3hPa West 0.1mph /  0.2km/h 7mph /  11.3km/h 69.9% 0.00in /  0mm 0 W/m2
16:39 45.9 °F /  7.7 °C 36.3 °F /  2.4 °C 29.75in /  1007.3hPa West 1.1mph /  1.8km/h 13mph /  20.9km/h 69.1% 0.00in /  0mm 0 W/m2
16:44 45.9 °F /  7.7 °C 36.4 °F /  2.4 °C 29.76in /  1007.7hPa WNW 1.3mph /  2.1km/h 13mph /  20.9km/h 69.2% 0.00in /  0mm 0 W/m2
16:49 45.9 °F /  7.7 °C 36 °F /  2.2 °C 29.76in /  1007.7hPa West 0.7mph /  1.1km/h 13mph /  20.9km/h 68% 0.00in /  0mm 0 W/m2
16:54 45.9 °F /  7.7 °C 35.9 °F /  2.2 °C 29.76in /  1007.7hPa West 2.6mph /  4.2km/h 13mph /  20.9km/h 67.9% 0.00in /  0mm 0 W/m2
16:59 46 °F /  7.8 °C 35.6 °F /  2 °C 29.76in /  1007.7hPa West 0.4mph /  0.6km/h 13mph /  20.9km/h 67% 0.00in /  0mm 0 W/m2
17:04 46 °F /  7.8 °C 35.7 °F /  2.1 °C 29.77in /  1008hPa West 0.1mph /  0.2km/h 13mph /  20.9km/h 67% 0.00in /  0mm 0 W/m2
17:09 46 °F /  7.8 °C 35.8 °F /  2.1 °C 29.77in /  1008hPa West 0.8mph /  1.3km/h 8mph /  12.9km/h 67.3% 0.00in /  0mm 0 W/m2
17:14 45.9 °F /  7.7 °C 35.4 °F /  1.9 °C 29.77in /  1008hPa WSW 2.1mph /  3.4km/h 11mph /  17.7km/h 66.5% 0.00in /  0mm 0 W/m2
17:19 46 °F /  7.8 °C 35.2 °F /  1.8 °C 29.77in /  1008hPa West 2.4mph /  3.9km/h 11mph /  17.7km/h 65.8% 0.00in /  0mm 0 W/m2
17:24 46 °F /  7.8 °C 35.2 °F /  1.8 °C 29.77in /  1008hPa West 2.5mph /  4km/h 11mph /  17.7km/h 65.6% 0.00in /  0mm 0 W/m2
17:29 46.1 °F /  7.8 °C 34.7 °F /  1.5 °C 29.78in /  1008.4hPa West 6.1mph /  9.8km/h 13mph /  20.9km/h 64.4% 0.00in /  0mm 0 W/m2
17:34 46.2 °F /  7.9 °C 34.5 °F /  1.4 °C 29.78in /  1008.4hPa WNW 8.7mph /  14km/h 18mph /  29km/h 63.6% 0.00in /  0mm 0 W/m2
17:39 46.3 °F /  7.9 °C 34.4 °F /  1.3 °C 29.78in /  1008.4hPa WNW 5.6mph /  9km/h 18mph /  29km/h 63% 0.00in /  0mm 0 W/m2
17:44 46.2 °F /  7.9 °C 34.5 °F /  1.4 °C 29.79in /  1008.7hPa WNW 3.6mph /  5.8km/h 18mph /  29km/h 63.6% 0.00in /  0mm 0 W/m2
17:49 46 °F /  7.8 °C 34.5 °F /  1.4 °C 29.79in /  1008.7hPa WNW 4.8mph /  7.7km/h 18mph /  29km/h 64% 0.00in /  0mm 0 W/m2
17:54 45.9 °F /  7.7 °C 34.4 °F /  1.3 °C 29.79in /  1008.7hPa WNW 2.9mph /  4.7km/h 18mph /  29km/h 64% 0.00in /  0mm 0 W/m2
17:59 45.8 °F /  7.7 °C 34.5 °F /  1.4 °C 29.79in /  1008.7hPa WNW 1.4mph /  2.3km/h 18mph /  29km/h 64.6% 0.00in /  0mm 0 W/m2
18:04 45.6 °F /  7.6 °C 34.5 °F /  1.4 °C 29.79in /  1008.7hPa West 2.1mph /  3.4km/h 18mph /  29km/h 65% 0.00in /  0mm 0 W/m2
18:09 45.4 °F /  7.4 °C 34.4 °F /  1.3 °C 29.79in /  1008.7hPa West 4.3mph /  6.9km/h 15mph /  24.1km/h 65% 0.00in /  0mm 0 W/m2
18:14 45.2 °F /  7.3 °C 34.2 °F /  1.2 °C 29.79in /  1008.7hPa West 5.3mph /  8.5km/h 16mph /  25.7km/h 65% 0.00in /  0mm 0 W/m2
18:19 45.1 °F /  7.3 °C 34 °F /  1.1 °C 29.79in /  1008.7hPa West 4.7mph /  7.6km/h 16mph /  25.7km/h 65% 0.00in /  0mm 0 W/m2
18:24 44.9 °F /  7.2 °C 33.9 °F /  1.1 °C 29.80in /  1009hPa WNW 5.9mph /  9.5km/h 18mph /  29km/h 65% 0.00in /  0mm 0 W/m2
18:29 44.8 °F /  7.1 °C 33.7 °F /  0.9 °C 29.80in /  1009hPa West 5.8mph /  9.3km/h 18mph /  29km/h 65% 0.00in /  0mm 0 W/m2
18:34 44.7 °F /  7.1 °C 33.7 °F /  0.9 °C 29.81in /  1009.4hPa West 3.1mph /  5km/h 18mph /  29km/h 65% 0.00in /  0mm 0 W/m2
18:39 44.6 °F /  7 °C 33.9 °F /  1.1 °C 29.81in /  1009.4hPa WNW 4.7mph /  7.6km/h 14mph /  22.5km/h 66% 0.00in /  0mm 0 W/m2
18:44 44.4 °F /  6.9 °C 33.8 °F /  1 °C 29.81in /  1009.4hPa WNW 8.3mph /  13.4km/h 17mph /  27.4km/h 66% 0.00in /  0mm 0 W/m2
18:49 44.4 °F /  6.9 °C 33.8 °F /  1 °C 29.81in /  1009.4hPa WNW 6.8mph /  10.9km/h 17mph /  27.4km/h 66% 0.00in /  0mm 0 W/m2
18:54 44.3 °F /  6.8 °C 33.9 °F /  1.1 °C 29.82in /  1009.7hPa West 3.6mph /  5.8km/h 17mph /  27.4km/h 66.5% 0.00in /  0mm 0 W/m2
18:59 44.2 °F /  6.8 °C 34 °F /  1.1 °C 29.82in /  1009.7hPa WNW 1.6mph /  2.6km/h 17mph /  27.4km/h 67% 0.00in /  0mm 0 W/m2
19:04 44 °F /  6.7 °C 33.8 °F /  1 °C 29.82in /  1009.7hPa West 1.6mph /  2.6km/h 17mph /  27.4km/h 67% 0.00in /  0mm 0 W/m2
19:09 43.9 °F /  6.6 °C 33.6 °F /  0.9 °C 29.82in /  1009.7hPa WSW 1.6mph /  2.6km/h 10mph /  16.1km/h 67% 0.00in /  0mm 0 W/m2
19:14 43.7 °F /  6.5 °C 33.5 °F /  0.8 °C 29.82in /  1009.7hPa West 1.2mph /  1.9km/h 12mph /  19.3km/h 67% 0.00in /  0mm 0 W/m2
19:19 43.6 °F /  6.4 °C 33.3 °F /  0.7 °C 29.83in /  1010hPa WSW 0.5mph /  0.8km/h 12mph /  19.3km/h 67% 0.00in /  0mm 0 W/m2
19:24 43.4 °F /  6.3 °C 33.2 °F /  0.7 °C 29.83in /  1010hPa WSW 1.6mph /  2.6km/h 12mph /  19.3km/h 67% 0.00in /  0mm 0 W/m2
19:29 43.3 °F /  6.3 °C 33.1 °F /  0.6 °C 29.83in /  1010hPa WSW 3.5mph /  5.6km/h 12mph /  19.3km/h 67% 0.00in /  0mm 0 W/m2
19:34 43.2 °F /  6.2 °C 33.3 °F /  0.7 °C 29.83in /  1010hPa WSW 2mph /  3.2km/h 12mph /  19.3km/h 67.7% 0.00in /  0mm 0 W/m2
19:38 43.1 °F /  6.2 °C 33.3 °F /  0.7 °C 29.83in /  1010hPa West 0.1mph /  0.2km/h 10mph /  16.1km/h 68% 0.00in /  0mm 0 W/m2
Hartford County Weather
Compliments of Weather Underground - 2 mb